createdAt,value
2023-03-27T00:00:20.519Z,1.63
2023-03-27T00:02:50.185Z,2.00
2023-03-27T00:05:20.466Z,1.95
2023-03-27T00:07:49.569Z,1.58
2023-03-27T00:10:18.200Z,1.83
2023-03-27T00:12:46.388Z,1.80
2023-03-27T00:15:17.411Z,2.33
2023-03-27T00:17:47.846Z,1.25
2023-03-27T00:20:22.470Z,1.73
2023-03-27T00:22:55.495Z,1.40
2023-03-27T00:25:24.973Z,1.80
2023-03-27T00:27:54.066Z,2.00
2023-03-27T00:30:22.419Z,2.03
2023-03-27T00:32:50.700Z,1.52
2023-03-27T00:35:20.274Z,1.67
2023-03-27T00:37:48.507Z,2.30
2023-03-27T00:40:17.806Z,2.05
2023-03-27T00:42:46.683Z,1.98
2023-03-27T00:45:19.153Z,2.50
2023-03-27T00:47:49.342Z,2.08
2023-03-27T00:50:22.747Z,1.42
2023-03-27T00:52:56.389Z,1.63
2023-03-27T00:55:27.346Z,2.25
2023-03-27T00:58:00.851Z,1.75
2023-03-27T01:00:33.692Z,1.67
2023-03-27T01:03:05.002Z,1.70
2023-03-27T01:05:35.425Z,2.10
2023-03-27T01:08:04.775Z,1.40
2023-03-27T01:10:43.546Z,1.75
2023-03-27T01:13:32.601Z,2.20
2023-03-27T01:16:07.175Z,1.90
2023-03-27T01:18:48.853Z,1.83
2023-03-27T01:21:57.727Z,1.48
2023-03-27T01:24:56.489Z,1.90
2023-03-27T01:27:41.002Z,1.60
2023-03-27T01:30:15.329Z,1.70
2023-03-27T01:33:07.494Z,1.48
2023-03-27T01:36:08.915Z,1.52
2023-03-27T01:39:13.445Z,2.05
2023-03-27T01:41:48.088Z,1.50
2023-03-27T01:44:20.912Z,1.40
2023-03-27T01:46:54.792Z,1.50
2023-03-27T01:49:26.373Z,1.25
2023-03-27T01:51:58.947Z,1.20
2023-03-27T01:54:32.862Z,1.38
2023-03-27T01:57:08.350Z,1.42
2023-03-27T01:59:42.613Z,0.93
2023-03-27T02:02:14.514Z,1.23
2023-03-27T02:04:49.002Z,1.13
2023-03-27T02:07:24.096Z,1.63
2023-03-27T02:09:57.613Z,1.25
2023-03-27T02:12:30.993Z,1.58
2023-03-27T02:15:23.612Z,1.40
2023-03-27T02:17:57.325Z,1.52
2023-03-27T02:20:25.446Z,1.40
2023-03-27T02:22:53.927Z,1.38
2023-03-27T02:25:28.962Z,1.30
2023-03-27T02:28:08.498Z,1.38
2023-03-27T02:30:44.011Z,1.30
2023-03-27T02:35:55.055Z,1.20
2023-03-27T02:38:31.866Z,1.70
2023-03-27T02:41:09.834Z,1.13
2023-03-27T02:43:43.343Z,1.15
2023-03-27T02:48:48.800Z,1.25
2023-03-27T02:51:22.219Z,1.88
2023-03-27T02:53:55.955Z,1.13
2023-03-27T02:56:28.352Z,1.50
2023-03-27T02:59:01.212Z,1.20
2023-03-27T03:01:30.885Z,1.50
2023-03-27T03:04:01.257Z,1.60
2023-03-27T03:06:30.812Z,1.15
2023-03-27T03:09:03.700Z,1.77
2023-03-27T03:11:36.641Z,1.35
2023-03-27T03:14:05.301Z,1.65
2023-03-27T03:16:33.490Z,2.50
2023-03-27T03:19:01.930Z,1.85
2023-03-27T03:21:30.082Z,2.63
2023-03-27T03:23:59.125Z,2.35
2023-03-27T03:26:27.837Z,1.40
2023-03-27T03:29:00.285Z,1.48
2023-03-27T03:31:43.106Z,1.60
2023-03-27T03:34:12.820Z,1.48
2023-03-27T03:36:42.143Z,1.90
2023-03-27T03:39:11.407Z,1.63
2023-03-27T03:41:39.558Z,1.30
2023-03-27T03:44:10.018Z,1.40
2023-03-27T03:46:38.237Z,1.60
2023-03-27T03:49:06.819Z,1.17
2023-03-27T03:51:36.189Z,1.10
2023-03-27T03:54:05.494Z,1.20
2023-03-27T03:56:34.512Z,1.00
2023-03-27T03:59:02.903Z,1.30
2023-03-27T04:01:32.412Z,1.25
2023-03-27T04:04:00.610Z,1.10
2023-03-27T04:06:31.007Z,1.00
2023-03-27T04:08:59.427Z,1.10
2023-03-27T04:11:27.554Z,1.77
2023-03-27T04:13:55.725Z,0.93
2023-03-27T04:16:23.931Z,1.10
2023-03-27T04:18:55.561Z,1.20
2023-03-27T04:21:26.841Z,1.55
2023-03-27T04:24:02.262Z,1.08
2023-03-27T04:28:58.535Z,1.70
2023-03-27T04:31:26.721Z,2.17
2023-03-27T04:33:56.291Z,1.25
2023-03-27T04:36:25.604Z,1.33
2023-03-27T04:38:54.333Z,1.40
2023-03-27T04:41:22.432Z,1.10
2023-03-27T04:43:50.569Z,1.17
2023-03-27T04:46:18.749Z,1.80
2023-03-27T04:48:47.153Z,1.95
2023-03-27T04:51:16.685Z,1.83
2023-03-27T04:53:44.907Z,2.30
2023-03-27T04:56:13.046Z,2.17
2023-03-27T04:58:41.670Z,2.33
2023-03-27T05:01:10.077Z,2.20
2023-03-27T05:03:39.127Z,1.77
2023-03-27T05:06:08.493Z,1.65
2023-03-27T05:08:38.040Z,1.70
2023-03-27T05:11:07.777Z,1.13
2023-03-27T05:13:35.970Z,0.93
2023-03-27T05:16:04.928Z,1.23
2023-03-27T05:18:33.091Z,2.38
2023-03-27T05:21:01.442Z,1.60
2023-03-27T05:23:29.932Z,1.42
2023-03-27T05:26:00.898Z,1.00
2023-03-27T05:28:29.597Z,1.38
2023-03-27T05:30:58.368Z,1.25
2023-03-27T05:33:27.181Z,1.35
2023-03-27T05:35:57.581Z,1.17
2023-03-27T05:38:26.871Z,1.27
2023-03-27T05:40:55.217Z,0.85
2023-03-27T05:43:24.884Z,1.52
2023-03-27T05:45:53.035Z,1.33
2023-03-27T05:48:21.440Z,1.40
2023-03-27T05:50:49.671Z,1.10
2023-03-27T05:53:17.745Z,1.15
2023-03-27T05:55:46.352Z,1.30
2023-03-27T05:58:15.209Z,1.45
2023-03-27T06:00:45.330Z,1.63
2023-03-27T06:03:14.350Z,1.33
2023-03-27T06:05:42.827Z,1.92
2023-03-27T06:08:11.826Z,1.40
2023-03-27T06:10:43.306Z,1.40
2023-03-27T06:13:13.912Z,1.63
2023-03-27T06:15:45.048Z,1.20
2023-03-27T06:18:13.439Z,1.38
2023-03-27T06:20:42.732Z,1.23
2023-03-27T06:23:10.968Z,1.20
2023-03-27T06:25:40.117Z,1.55
2023-03-27T06:28:09.635Z,1.40
2023-03-27T06:30:39.006Z,1.00
2023-03-27T06:33:09.002Z,1.45
2023-03-27T06:35:37.790Z,1.10
2023-03-27T06:38:06.589Z,1.23
2023-03-27T06:40:36.357Z,1.80
2023-03-27T06:43:07.598Z,1.30
2023-03-27T06:45:38.163Z,1.55
2023-03-27T06:48:15.301Z,1.35
2023-03-27T06:50:49.095Z,1.25
2023-03-27T06:55:49.967Z,1.20
2023-03-27T06:58:19.551Z,1.40
2023-03-27T07:00:50.457Z,1.90
2023-03-27T07:03:21.701Z,1.20
2023-03-27T07:05:50.213Z,1.50
2023-03-27T07:08:24.465Z,1.27
2023-03-27T07:11:07.912Z,1.40
2023-03-27T07:13:42.597Z,1.70
2023-03-27T07:16:12.696Z,1.20
2023-03-27T07:18:42.996Z,1.70
2023-03-27T07:21:12.975Z,1.30
2023-03-27T07:23:41.503Z,1.90
2023-03-27T07:26:09.759Z,1.58
2023-03-27T07:28:38.734Z,1.35
2023-03-27T07:31:25.900Z,1.40
2023-03-27T07:34:01.735Z,1.08
2023-03-27T07:36:30.346Z,1.20
2023-03-27T07:38:58.840Z,1.00
2023-03-27T07:41:28.337Z,1.70
2023-03-27T07:43:56.883Z,1.23
2023-03-27T07:46:25.807Z,1.13
2023-03-27T07:48:55.294Z,1.45
2023-03-27T07:51:27.095Z,1.38
2023-03-27T07:53:58.553Z,1.17
2023-03-27T07:56:27.149Z,1.20
2023-03-27T07:58:55.429Z,1.80
2023-03-27T08:01:25.882Z,1.63
2023-03-27T08:03:54.915Z,1.05
2023-03-27T08:06:23.213Z,1.08
2023-03-27T08:08:52.776Z,1.40
2023-03-27T08:11:30.044Z,1.10
2023-03-27T08:13:59.632Z,1.35
2023-03-27T08:16:29.039Z,1.30
2023-03-27T08:18:58.600Z,1.50
2023-03-27T08:21:26.839Z,1.55
2023-03-27T08:23:58.851Z,1.00
2023-03-27T08:26:27.783Z,1.65
2023-03-27T08:28:56.444Z,1.80
2023-03-27T08:31:25.778Z,2.13
2023-03-27T08:33:54.057Z,1.45
2023-03-27T08:36:23.140Z,2.40
2023-03-27T08:38:51.517Z,2.25
2023-03-27T08:41:38.663Z,1.60
2023-03-27T08:44:11.692Z,1.92
2023-03-27T08:46:43.968Z,1.70
2023-03-27T08:49:17.812Z,2.08
2023-03-27T08:51:49.541Z,2.20
2023-03-27T08:54:20.300Z,1.83
2023-03-27T08:56:50.577Z,1.65
2023-03-27T08:59:21.435Z,1.95
2023-03-27T09:01:54.963Z,2.05
2023-03-27T09:04:37.774Z,1.65
2023-03-27T09:07:11.498Z,1.70
2023-03-27T09:09:55.866Z,2.00
2023-03-27T09:12:44.805Z,2.10
2023-03-27T09:15:15.032Z,1.55
2023-03-27T09:17:48.116Z,2.08
2023-03-27T09:20:20.664Z,1.15
2023-03-27T09:22:53.716Z,1.88
2023-03-27T09:25:27.585Z,1.83
2023-03-27T09:27:58.738Z,1.98
2023-03-27T09:30:29.910Z,2.22
2023-03-27T09:33:03.571Z,1.52
2023-03-27T09:35:32.227Z,1.70
2023-03-27T09:38:03.921Z,1.10
2023-03-27T09:40:43.035Z,1.80
2023-03-27T09:43:18.568Z,1.05
2023-03-27T09:45:50.092Z,2.08
2023-03-27T09:48:31.779Z,1.80
2023-03-27T09:50:59.946Z,1.55
2023-03-27T09:53:28.142Z,1.40
2023-03-27T09:55:59.624Z,1.73
2023-03-27T09:58:40.240Z,1.65
2023-03-27T10:01:15.551Z,1.70
2023-03-27T10:03:49.850Z,1.08
2023-03-27T10:06:27.238Z,1.13
2023-03-27T10:08:56.375Z,1.17
2023-03-27T10:11:28.402Z,0.95
2023-03-27T10:13:59.866Z,1.42
2023-03-27T10:16:29.723Z,0.60
2023-03-27T10:19:00.856Z,1.77
2023-03-27T10:21:32.553Z,0.95
2023-03-27T10:24:03.110Z,0.90
2023-03-27T10:26:37.788Z,0.90
2023-03-27T10:29:22.932Z,0.98
2023-03-27T10:31:53.327Z,0.85
2023-03-27T10:34:38.048Z,0.90
2023-03-27T10:37:21.720Z,0.90
2023-03-27T10:39:50.225Z,1.02
2023-03-27T10:42:20.371Z,0.90
2023-03-27T10:44:54.550Z,0.90
2023-03-27T10:47:25.465Z,1.38
2023-03-27T10:50:03.941Z,1.25
2023-03-27T10:52:42.174Z,1.23
2023-03-27T10:55:22.613Z,1.30
2023-03-27T10:57:54.587Z,0.82
2023-03-27T11:00:33.303Z,1.17
2023-03-27T11:03:09.660Z,0.95
2023-03-27T11:05:41.419Z,1.58
2023-03-27T11:08:14.436Z,1.20
2023-03-27T11:10:44.040Z,1.10
2023-03-27T11:13:18.604Z,1.10
2023-03-27T11:15:54.111Z,1.58
2023-03-27T11:18:26.096Z,1.30
2023-03-27T11:20:59.620Z,0.90
2023-03-27T11:23:34.316Z,1.00
2023-03-27T11:26:06.114Z,1.02
2023-03-27T11:28:42.923Z,0.93
2023-03-27T11:31:21.278Z,1.10
2023-03-27T11:33:53.790Z,1.63
2023-03-27T11:36:34.208Z,1.10
2023-03-27T11:39:15.694Z,1.05
2023-03-27T11:41:48.516Z,1.10
2023-03-27T11:44:16.696Z,1.10
2023-03-27T11:47:11.539Z,1.35
2023-03-27T11:50:09.475Z,0.90
2023-03-27T11:52:46.628Z,0.98
2023-03-27T11:55:25.305Z,0.93
2023-03-27T11:58:08.077Z,1.05
2023-03-27T12:00:42.645Z,1.00
2023-03-27T12:03:45.164Z,1.00
2023-03-27T12:06:19.873Z,0.85
2023-03-27T12:09:04.424Z,1.03
2023-03-27T12:11:33.106Z,1.10
2023-03-27T12:14:40.450Z,0.95
2023-03-27T12:17:29.358Z,0.70
2023-03-27T12:20:52.800Z,1.05
2023-03-27T12:23:39.303Z,0.85
2023-03-27T12:26:31.793Z,1.55
2023-03-27T12:29:23.793Z,1.20
2023-03-27T12:32:06.971Z,0.75
2023-03-27T12:34:50.277Z,0.77
2023-03-27T12:37:24.515Z,1.35
2023-03-27T12:39:55.039Z,1.10
2023-03-27T12:42:44.138Z,1.23
2023-03-27T12:45:18.238Z,1.00
2023-03-27T12:48:05.586Z,1.50
2023-03-27T12:50:36.925Z,1.20
2023-03-27T12:53:06.953Z,1.10
2023-03-27T12:55:36.286Z,1.23
2023-03-27T12:58:06.181Z,1.40
2023-03-27T13:00:34.479Z,1.17
2023-03-27T13:03:32.803Z,1.63
2023-03-27T13:06:22.778Z,1.02
2023-03-27T13:09:19.753Z,0.85
2023-03-27T13:12:04.393Z,0.95
2023-03-27T13:15:08.621Z,0.82
2023-03-27T13:18:07.709Z,1.60
2023-03-27T13:20:47.020Z,0.73
2023-03-27T13:23:37.112Z,1.08
2023-03-27T13:26:19.780Z,1.10
2023-03-27T13:28:51.061Z,1.10
2023-03-27T13:31:55.870Z,1.45
2023-03-27T13:34:35.720Z,1.08
2023-03-27T13:37:43.430Z,1.02
2023-03-27T13:40:26.619Z,0.22
2023-03-27T13:43:08.099Z,0.80
2023-03-27T13:45:46.607Z,1.00
2023-03-27T13:48:41.098Z,1.23
2023-03-27T13:51:30.397Z,0.90
2023-03-27T13:54:41.984Z,1.10
2023-03-27T13:57:23.802Z,0.80
2023-03-27T14:00:24.622Z,0.85
2023-03-27T14:03:41.459Z,0.80
2023-03-27T14:06:36.607Z,1.58
2023-03-27T14:09:14.163Z,0.80
2023-03-27T14:11:55.790Z,1.00
2023-03-27T14:14:47.221Z,1.40
2023-03-27T14:17:40.670Z,0.90
2023-03-27T14:20:21.927Z,1.13
2023-03-27T14:22:54.632Z,1.42
2023-03-27T14:25:26.863Z,1.25
2023-03-27T14:27:56.611Z,0.70
2023-03-27T14:30:26.475Z,1.02
2023-03-27T14:32:57.652Z,1.20
2023-03-27T14:35:34.257Z,1.08
2023-03-27T14:38:05.308Z,1.30
2023-03-27T14:40:36.749Z,1.13
2023-03-27T14:43:07.973Z,1.30
2023-03-27T14:45:39.405Z,0.70
2023-03-27T14:48:14.865Z,0.93
2023-03-27T14:53:15.077Z,0.98
2023-03-27T14:55:43.605Z,1.58
2023-03-27T14:58:18.546Z,1.38
2023-03-27T15:00:52.466Z,1.00
2023-03-27T15:03:26.686Z,1.40
2023-03-27T15:06:02.008Z,1.00
2023-03-27T15:08:36.827Z,0.60
2023-03-27T15:11:11.898Z,0.88
2023-03-27T15:13:40.012Z,1.10
2023-03-27T15:16:10.508Z,0.80
2023-03-27T15:18:52.706Z,1.00
2023-03-27T15:21:34.775Z,1.00
2023-03-27T15:24:06.775Z,1.40
2023-03-27T15:26:36.763Z,1.10
2023-03-27T15:29:13.888Z,1.20
2023-03-27T15:31:44.824Z,1.23
2023-03-27T15:34:23.224Z,1.15
2023-03-27T15:36:56.824Z,0.82
2023-03-27T15:39:26.613Z,1.00
2023-03-27T15:41:57.356Z,0.90
2023-03-27T15:44:31.686Z,0.60
2023-03-27T15:47:01.157Z,0.85
2023-03-27T15:49:33.508Z,0.80
2023-03-27T15:52:22.718Z,0.70
2023-03-27T15:54:56.983Z,0.77
2023-03-27T15:57:29.326Z,0.77
2023-03-27T16:00:04.271Z,0.73
2023-03-27T16:02:32.840Z,0.52
2023-03-27T16:05:01.220Z,0.88
2023-03-27T16:07:34.650Z,0.60
2023-03-27T16:10:07.696Z,0.85
2023-03-27T16:12:50.271Z,0.82
2023-03-27T16:15:29.286Z,0.95
2023-03-27T16:17:59.048Z,0.93
2023-03-27T16:20:37.291Z,0.77
2023-03-27T16:23:06.285Z,1.25
2023-03-27T16:25:36.290Z,1.00
2023-03-27T16:28:04.468Z,1.50
2023-03-27T16:30:36.037Z,1.20
2023-03-27T16:33:04.991Z,1.23
2023-03-27T16:35:34.100Z,1.10
2023-03-27T16:38:03.490Z,0.98
2023-03-27T16:40:31.734Z,0.95
2023-03-27T16:43:01.304Z,0.63
2023-03-27T16:45:29.548Z,1.40
2023-03-27T16:47:57.787Z,1.40
2023-03-27T16:50:29.167Z,1.30
2023-03-27T16:52:57.833Z,1.05
2023-03-27T16:55:26.173Z,0.47
2023-03-27T16:57:55.170Z,0.98
2023-03-27T17:00:26.739Z,1.10
2023-03-27T17:02:54.951Z,1.23
2023-03-27T17:05:23.181Z,1.00
2023-03-27T17:07:51.392Z,1.13
2023-03-27T17:10:19.671Z,1.27
2023-03-27T17:12:47.846Z,1.85
2023-03-27T17:15:16.836Z,1.48
2023-03-27T17:17:46.766Z,1.23
2023-03-27T17:20:14.944Z,1.13
2023-03-27T17:22:44.718Z,1.50
2023-03-27T17:25:13.214Z,1.55
2023-03-27T17:27:41.458Z,1.20
2023-03-27T17:30:11.104Z,1.70
2023-03-27T17:32:39.345Z,1.58
2023-03-27T17:35:09.627Z,1.50
2023-03-27T17:37:37.733Z,1.40
2023-03-27T17:40:09.894Z,0.88
2023-03-27T17:42:38.431Z,1.30
2023-03-27T17:45:07.646Z,1.55
2023-03-27T17:47:36.264Z,1.58
2023-03-27T17:50:05.214Z,1.45
2023-03-27T17:52:34.834Z,1.20
2023-03-27T17:55:03.010Z,1.17
2023-03-27T17:57:31.192Z,1.50
2023-03-27T17:59:59.340Z,1.48
2023-03-27T18:02:27.565Z,1.73
2023-03-27T18:04:55.760Z,1.30
2023-03-27T18:07:24.552Z,1.80
2023-03-27T18:09:54.086Z,1.25
2023-03-27T18:12:22.256Z,1.40
2023-03-27T18:14:50.445Z,1.42
2023-03-27T18:17:21.071Z,1.42
2023-03-27T18:19:49.370Z,1.35
2023-03-27T18:22:17.674Z,1.73
2023-03-27T18:24:45.878Z,2.30
2023-03-27T18:27:16.487Z,2.10
2023-03-27T18:29:44.886Z,2.13
2023-03-27T18:32:13.049Z,2.50
2023-03-27T18:34:41.301Z,2.72
2023-03-27T18:37:09.437Z,2.30
2023-03-27T18:39:37.984Z,2.92
2023-03-27T18:42:06.911Z,1.73
2023-03-27T18:44:38.045Z,1.95
2023-03-27T18:47:06.302Z,2.63
2023-03-27T18:49:34.447Z,1.80
2023-03-27T18:52:02.595Z,2.45
2023-03-27T18:54:31.145Z,2.17
2023-03-27T18:56:59.309Z,2.40
2023-03-27T18:59:27.460Z,1.75
2023-03-27T19:01:57.015Z,2.00
2023-03-27T19:04:25.167Z,2.17
2023-03-27T19:06:53.366Z,1.67
2023-03-27T19:09:28.236Z,2.83
2023-03-27T19:12:07.206Z,3.00
2023-03-27T19:14:35.581Z,2.95
2023-03-27T19:17:05.848Z,3.22
2023-03-27T19:19:34.307Z,2.50
2023-03-27T19:22:02.450Z,2.53
2023-03-27T19:24:30.592Z,2.60
2023-03-27T19:26:58.821Z,2.58
2023-03-27T19:29:27.253Z,2.65
2023-03-27T19:31:55.446Z,2.17
2023-03-27T19:34:40.109Z,2.20
2023-03-27T19:37:10.881Z,2.20
2023-03-27T19:39:39.076Z,2.20
2023-03-27T19:42:07.327Z,2.60
2023-03-27T19:44:35.533Z,2.58
2023-03-27T19:47:03.940Z,2.22
2023-03-27T19:49:33.571Z,2.90
2023-03-27T19:52:01.776Z,2.60
2023-03-27T19:54:31.421Z,2.33
2023-03-27T19:56:59.699Z,2.50
2023-03-27T19:59:30.736Z,2.22
2023-03-27T20:01:59.550Z,2.78
2023-03-27T20:04:27.722Z,2.53
2023-03-27T20:06:59.002Z,2.28
2023-03-27T20:09:27.288Z,2.22
2023-03-27T20:11:55.572Z,2.15
2023-03-27T20:14:23.736Z,2.15
2023-03-27T20:16:52.166Z,2.95
2023-03-27T20:19:22.048Z,2.15
2023-03-27T20:21:50.514Z,2.70
2023-03-27T20:24:20.015Z,2.90
2023-03-27T20:26:52.510Z,2.78
2023-03-27T20:29:23.951Z,1.83
2023-03-27T20:31:52.421Z,3.15
2023-03-27T20:34:22.533Z,2.70
2023-03-27T20:36:53.590Z,3.30
2023-03-27T20:39:23.293Z,2.47
2023-03-27T20:41:53.210Z,2.70
2023-03-27T20:44:21.371Z,2.40
2023-03-27T20:46:51.744Z,2.72
2023-03-27T20:51:57.246Z,2.80
2023-03-27T20:54:27.348Z,2.47
2023-03-27T20:56:55.588Z,2.65
2023-03-27T20:59:23.724Z,2.22
2023-03-27T21:01:52.045Z,2.72
2023-03-27T21:04:21.521Z,3.13
2023-03-27T21:06:49.924Z,3.00
2023-03-27T21:09:18.144Z,3.45
2023-03-27T21:11:47.707Z,3.38
2023-03-27T21:14:15.883Z,3.13
2023-03-27T21:16:44.741Z,3.20
2023-03-27T21:19:12.930Z,3.33
2023-03-27T21:21:41.360Z,2.72
2023-03-27T21:24:13.287Z,3.58
2023-03-27T21:26:41.604Z,4.18
2023-03-27T21:29:11.574Z,3.38
2023-03-27T21:31:40.530Z,4.07
2023-03-27T21:34:08.891Z,3.67
2023-03-27T21:36:37.915Z,4.55
2023-03-27T21:39:06.526Z,3.40
2023-03-27T21:41:34.650Z,4.00
2023-03-27T21:44:02.878Z,5.07
2023-03-27T21:46:32.500Z,3.90
2023-03-27T21:49:00.670Z,4.53
2023-03-27T21:51:28.854Z,4.95
2023-03-27T21:53:56.983Z,4.45
2023-03-27T21:56:25.112Z,5.32
2023-03-27T21:58:53.261Z,5.75
2023-03-27T22:01:21.391Z,5.32
2023-03-27T22:03:51.031Z,4.85
2023-03-27T22:06:19.490Z,4.88
2023-03-27T22:08:47.664Z,4.38
2023-03-27T22:11:16.124Z,4.70
2023-03-27T22:13:45.025Z,4.90
2023-03-27T22:16:15.766Z,5.05
2023-03-27T22:18:44.369Z,4.30
2023-03-27T22:21:16.513Z,4.18
2023-03-27T22:23:45.089Z,4.20
2023-03-27T22:26:13.427Z,4.22
2023-03-27T22:28:41.599Z,5.65
2023-03-27T22:31:10.133Z,4.20
2023-03-27T22:33:38.585Z,3.97
2023-03-27T22:36:09.912Z,4.15
2023-03-27T22:38:40.719Z,4.03
2023-03-27T22:41:10.729Z,5.10
2023-03-27T22:43:39.170Z,3.80
2023-03-27T22:46:08.465Z,3.70
2023-03-27T22:48:36.792Z,4.00
2023-03-27T22:51:05.272Z,3.92
2023-03-27T22:53:33.996Z,3.97
2023-03-27T22:56:04.307Z,3.97
2023-03-27T22:58:32.555Z,3.30
2023-03-27T23:01:01.015Z,3.67
2023-03-27T23:03:29.605Z,5.35
2023-03-27T23:05:57.921Z,4.63
2023-03-27T23:08:28.478Z,4.80
2023-03-27T23:10:57.732Z,4.50
2023-03-27T23:13:28.764Z,3.88
2023-03-27T23:15:57.310Z,3.60
2023-03-27T23:18:25.517Z,3.92
2023-03-27T23:20:56.946Z,3.30
2023-03-27T23:23:25.572Z,3.72
2023-03-27T23:25:53.952Z,3.08
2023-03-27T23:28:22.511Z,3.20
2023-03-27T23:30:55.652Z,4.00
2023-03-27T23:33:25.267Z,3.63
2023-03-27T23:35:54.081Z,4.13
2023-03-27T23:38:22.590Z,3.15
2023-03-27T23:40:56.668Z,4.47
2023-03-27T23:43:26.134Z,3.75
2023-03-27T23:45:56.633Z,3.35
2023-03-27T23:48:24.900Z,3.40
2023-03-27T23:50:53.225Z,3.08
2023-03-27T23:53:22.054Z,3.25
2023-03-27T23:55:50.361Z,3.38
2023-03-27T23:58:18.560Z,3.90
